createdAt,value
2023-01-27T00:02:08.251Z,98595.88
2023-01-27T00:07:10.091Z,98595.19
2023-01-27T00:12:37.726Z,98589.63
2023-01-27T00:17:39.549Z,98583.66
2023-01-27T00:23:00.249Z,98585.63
2023-01-27T00:28:06.323Z,98585.88
2023-01-27T00:33:27.741Z,98579.94
2023-01-27T00:38:31.367Z,98588.00
2023-01-27T00:43:33.246Z,98588.00
2023-01-27T00:48:35.142Z,98593.31
2023-01-27T00:53:38.151Z,98595.88
2023-01-27T00:58:40.248Z,98590.16
2023-01-27T01:03:43.376Z,98594.44
2023-01-27T01:08:45.483Z,98593.34
2023-01-27T01:13:48.157Z,98594.91
2023-01-27T01:18:50.097Z,98592.78
2023-01-27T01:23:52.082Z,98595.97
2023-01-27T01:28:53.947Z,98599.28
2023-01-27T01:33:55.836Z,98598.03
2023-01-27T01:38:58.485Z,98592.25
2023-01-27T01:44:19.801Z,98592.91
2023-01-27T01:49:33.241Z,98595.03
2023-01-27T01:54:41.663Z,98598.78
2023-01-27T02:00:03.130Z,98603.59
2023-01-27T02:05:21.959Z,98597.66
2023-01-27T02:10:24.594Z,98598.69
2023-01-27T02:15:26.722Z,98598.66
2023-01-27T02:20:36.571Z,98602.09
2023-01-27T02:25:42.847Z,98603.47
2023-01-27T02:30:44.835Z,98612.00
2023-01-27T02:36:10.916Z,98602.09
2023-01-27T02:41:19.551Z,98600.00
2023-01-27T02:46:22.548Z,98610.16
2023-01-27T02:51:24.694Z,98617.91
2023-01-27T02:56:27.184Z,98614.81
2023-01-27T03:01:32.838Z,98617.47
2023-01-27T03:06:35.439Z,98620.97
2023-01-27T03:11:55.892Z,98626.03
2023-01-27T03:17:17.089Z,98624.28
2023-01-27T03:22:20.321Z,98613.69
2023-01-27T03:27:22.846Z,98616.88
2023-01-27T03:32:54.369Z,98618.38
2023-01-27T03:38:50.501Z,98627.53
2023-01-27T03:44:11.456Z,98624.75
2023-01-27T03:49:14.643Z,98627.53
2023-01-27T03:54:16.465Z,98627.34
2023-01-27T03:59:18.517Z,98628.13
2023-01-27T04:04:39.048Z,98632.38
2023-01-27T04:09:41.014Z,98632.38
2023-01-27T04:14:42.865Z,98634.50
2023-01-27T04:19:45.162Z,98625.59
2023-01-27T04:24:47.114Z,98623.81
2023-01-27T04:29:48.982Z,98619.97
2023-01-27T04:34:50.834Z,98625.31
2023-01-27T04:39:52.705Z,98623.81
2023-01-27T04:44:54.487Z,98614.75
2023-01-27T04:49:56.248Z,98623.38
2023-01-27T04:54:58.039Z,98624.47
2023-01-27T04:59:59.801Z,98618.66
2023-01-27T05:05:04.783Z,98635.75
2023-01-27T05:10:07.441Z,98626.13
2023-01-27T05:15:09.635Z,98626.78
2023-01-27T05:20:11.811Z,98627.81
2023-01-27T05:25:13.979Z,98639.78
2023-01-27T05:30:16.555Z,98642.66
2023-01-27T05:35:18.491Z,98652.72
2023-01-27T05:40:20.324Z,98651.69
2023-01-27T05:45:22.138Z,98658.09
2023-01-27T05:50:23.934Z,98664.47
2023-01-27T05:55:25.775Z,98670.06
2023-01-27T06:00:27.716Z,98667.13
2023-01-27T06:05:29.668Z,98663.16
2023-01-27T06:10:32.165Z,98666.72
2023-01-27T06:15:34.001Z,98673.91
2023-01-27T06:20:35.818Z,98678.38
2023-01-27T06:25:43.661Z,98678.88
2023-01-27T06:30:45.878Z,98680.88
2023-01-27T06:35:48.435Z,98686.81
2023-01-27T06:40:50.276Z,98690.06
2023-01-27T06:45:53.057Z,98683.09
2023-01-27T06:50:56.615Z,98688.78
2023-01-27T06:56:00.271Z,98690.41
2023-01-27T07:01:04.753Z,98698.59
2023-01-27T07:06:06.897Z,98695.34
2023-01-27T07:11:08.714Z,98708.13
2023-01-27T07:16:10.679Z,98718.28
2023-01-27T07:21:12.855Z,98716.59
2023-01-27T07:26:24.650Z,98721.66
2023-01-27T07:31:27.241Z,98721.50
2023-01-27T07:36:29.144Z,98721.63
2023-01-27T07:41:32.237Z,98737.53
2023-01-27T07:46:34.361Z,98739.66
2023-01-27T07:51:36.363Z,98739.00
2023-01-27T07:56:38.523Z,98740.69
2023-01-27T08:01:41.925Z,98732.09
2023-01-27T08:06:43.817Z,98737.34
2023-01-27T08:11:45.639Z,98746.91
2023-01-27T08:16:47.501Z,98755.53
2023-01-27T08:21:49.356Z,98758.81
2023-01-27T08:26:51.433Z,98756.72
2023-01-27T08:31:53.260Z,98768.47
2023-01-27T08:36:55.184Z,98765.28
2023-01-27T08:41:57.216Z,98762.00
2023-01-27T08:46:59.092Z,98766.22
2023-01-27T08:52:00.979Z,98767.00
2023-01-27T08:57:03.124Z,98764.94
2023-01-27T09:02:04.967Z,98771.19
2023-01-27T09:07:06.821Z,98778.34
2023-01-27T09:12:08.768Z,98775.78
2023-01-27T09:17:10.720Z,98790.47
2023-01-27T09:22:12.712Z,98785.59
2023-01-27T09:27:14.625Z,98796.75
2023-01-27T09:32:16.483Z,98795.41
2023-01-27T09:37:19.111Z,98802.09
2023-01-27T09:42:36.150Z,98800.03
2023-01-27T09:47:53.773Z,98813.66
2023-01-27T09:53:53.291Z,98814.97
2023-01-27T09:59:28.894Z,98810.72
2023-01-27T10:04:37.622Z,98824.34
2023-01-27T10:09:39.596Z,98814.16
2023-01-27T10:15:04.831Z,98817.03
2023-01-27T10:20:18.729Z,98811.63
2023-01-27T10:25:32.688Z,98807.31
2023-01-27T10:30:37.188Z,98808.91
2023-01-27T10:35:49.180Z,98808.59
2023-01-27T10:41:05.703Z,98801.91
2023-01-27T10:46:25.098Z,98801.84
2023-01-27T10:51:34.975Z,98796.19
2023-01-27T10:56:54.175Z,98800.19
2023-01-27T11:02:10.749Z,98799.66
2023-01-27T11:07:21.522Z,98798.38
2023-01-27T11:12:36.099Z,98797.00
2023-01-27T11:17:45.743Z,98800.75
2023-01-27T11:23:05.890Z,98798.38
2023-01-27T11:28:16.513Z,98807.25
2023-01-27T11:33:27.496Z,98806.22
2023-01-27T11:38:29.335Z,98811.00
2023-01-27T11:43:32.140Z,98801.91
2023-01-27T11:48:42.058Z,98805.63
2023-01-27T11:53:46.761Z,98802.41
2023-01-27T11:59:20.146Z,98789.06
2023-01-27T12:04:34.271Z,98787.22
2023-01-27T12:09:38.632Z,98779.44
2023-01-27T12:15:00.549Z,98779.16
2023-01-27T12:20:07.618Z,98775.16
2023-01-27T12:25:18.448Z,98775.16
2023-01-27T12:30:23.999Z,98775.66
2023-01-27T12:35:28.607Z,98772.44
2023-01-27T12:40:33.090Z,98764.94
2023-01-27T12:45:35.662Z,98762.78
2023-01-27T12:50:38.696Z,98758.47
2023-01-27T12:56:00.206Z,98759.03
2023-01-27T13:01:25.413Z,98759.53
2023-01-27T13:06:56.592Z,98763.25
2023-01-27T13:12:01.935Z,98763.44
2023-01-27T13:17:04.056Z,98761.53
2023-01-27T13:22:07.486Z,98766.34
2023-01-27T13:27:20.204Z,98760.47
2023-01-27T13:32:26.327Z,98770.34
2023-01-27T13:37:54.650Z,98773.22
2023-01-27T13:43:03.006Z,98764.41
2023-01-27T13:48:22.608Z,98772.63
2023-01-27T13:53:24.565Z,98769.13
2023-01-27T13:58:44.115Z,98769.44
2023-01-27T14:03:46.175Z,98765.72
2023-01-27T14:08:53.500Z,98772.16
2023-01-27T14:14:05.901Z,98771.06
2023-01-27T14:19:30.388Z,98777.50
2023-01-27T14:24:32.189Z,98785.25
2023-01-27T14:29:54.968Z,98787.63
2023-01-27T14:35:10.013Z,98794.53
2023-01-27T14:40:23.306Z,98794.47
2023-01-27T14:45:32.416Z,98796.31
2023-01-27T14:50:54.091Z,98805.72
2023-01-27T14:56:06.901Z,98808.38
2023-01-27T15:01:24.176Z,98813.16
2023-01-27T15:06:34.049Z,98816.38
2023-01-27T15:11:54.676Z,98830.25
2023-01-27T15:16:56.456Z,98825.66
2023-01-27T15:22:27.255Z,98826.44
2023-01-27T15:27:29.817Z,98822.41
2023-01-27T15:32:39.407Z,98828.53
2023-01-27T15:37:59.620Z,98834.47
2023-01-27T15:43:07.262Z,98843.00
2023-01-27T15:48:22.415Z,98833.09
2023-01-27T15:53:35.325Z,98838.16
2023-01-27T15:58:42.095Z,98833.31
2023-01-27T16:03:48.377Z,98840.78
2023-01-27T16:08:55.640Z,98835.94
2023-01-27T16:19:29.806Z,98846.66
2023-01-27T16:24:56.948Z,98853.03
2023-01-27T16:30:07.518Z,98847.91
2023-01-27T16:35:21.593Z,98849.75
2023-01-27T16:40:24.551Z,98859.88
2023-01-27T16:45:38.906Z,98856.13
2023-01-27T16:50:42.565Z,98866.00
2023-01-27T16:56:00.187Z,98864.66
2023-01-27T17:01:02.386Z,98870.09
2023-01-27T17:06:14.598Z,98872.75
2023-01-27T17:11:22.491Z,98876.50
2023-01-27T17:16:32.607Z,98878.91
2023-01-27T17:21:42.312Z,98885.09
2023-01-27T17:26:48.123Z,98876.03
2023-01-27T17:31:51.053Z,98876.63
2023-01-27T17:37:19.805Z,98889.47
2023-01-27T17:42:24.118Z,98897.00
2023-01-27T17:47:26.098Z,98896.19
2023-01-27T17:52:30.113Z,98905.06
2023-01-27T17:57:35.570Z,98896.50
2023-01-27T18:02:48.631Z,98900.84
2023-01-27T18:07:50.855Z,98911.53
2023-01-27T18:12:54.912Z,98907.78
2023-01-27T18:18:05.692Z,98914.19
2023-01-27T18:23:17.868Z,98913.69
2023-01-27T18:28:21.277Z,98916.91
2023-01-27T18:33:23.622Z,98918.50
2023-01-27T18:38:32.815Z,98927.06
2023-01-27T18:43:36.472Z,98927.28
2023-01-27T18:48:40.151Z,98936.63
2023-01-27T18:53:43.632Z,98941.19
2023-01-27T18:58:45.789Z,98942.78
2023-01-27T19:03:49.556Z,98947.31
2023-01-27T19:08:53.226Z,98949.50
2023-01-27T19:13:55.569Z,98948.69
2023-01-27T19:18:57.943Z,98956.41
2023-01-27T19:24:01.588Z,98952.69
2023-01-27T19:29:05.244Z,98959.09
2023-01-27T19:34:12.486Z,98958.03
2023-01-27T19:39:18.898Z,98965.56
2023-01-27T19:44:22.028Z,98974.13
2023-01-27T19:49:26.362Z,98972.03
2023-01-27T19:54:31.514Z,98965.06
2023-01-27T19:59:34.037Z,98973.63
2023-01-27T20:04:36.763Z,98976.81
2023-01-27T20:09:39.061Z,98982.44
2023-01-27T20:14:41.271Z,98987.78
2023-01-27T20:19:43.613Z,98987.78
2023-01-27T20:24:45.601Z,98992.06
2023-01-27T20:29:47.796Z,98995.03
2023-01-27T20:34:50.733Z,98992.84
2023-01-27T20:39:55.954Z,98984.31
2023-01-27T20:44:58.488Z,98983.25
2023-01-27T20:50:00.589Z,98985.13
2023-01-27T20:55:03.567Z,98987.28
2023-01-27T21:00:06.521Z,98984.88
2023-01-27T21:05:09.374Z,98980.88
2023-01-27T21:10:12.386Z,98992.38
2023-01-27T21:15:15.014Z,98987.03
2023-01-27T21:20:17.477Z,98994.53
2023-01-27T21:25:19.759Z,98999.34
2023-01-27T21:30:22.294Z,98994.00
2023-01-27T21:35:24.566Z,99000.38
2023-01-27T21:40:27.694Z,98996.63
2023-01-27T21:45:29.665Z,98997.41
2023-01-27T21:50:31.843Z,98997.94
2023-01-27T21:55:35.464Z,98998.19
2023-01-27T22:00:37.659Z,98996.03
2023-01-27T22:05:39.523Z,98996.53
2023-01-27T22:10:42.765Z,98992.78
2023-01-27T22:15:50.513Z,98992.22
2023-01-27T22:20:52.408Z,98989.00
2023-01-27T22:25:54.545Z,99000.19
2023-01-27T22:31:01.276Z,99003.69
2023-01-27T22:36:05.419Z,99000.72
2023-01-27T22:41:07.327Z,98990.56
2023-01-27T22:46:09.254Z,98986.00
2023-01-27T22:51:11.076Z,98992.13
2023-01-27T22:56:12.900Z,98992.66
2023-01-27T23:01:14.790Z,99000.69
2023-01-27T23:06:17.166Z,98990.78
2023-01-27T23:11:19.071Z,98996.38
2023-01-27T23:16:20.953Z,98988.06
2023-01-27T23:21:22.847Z,98991.00
2023-01-27T23:26:25.132Z,98982.69
2023-01-27T23:31:27.146Z,98986.94
2023-01-27T23:36:29.134Z,98987.72
2023-01-27T23:41:30.999Z,98986.66
2023-01-27T23:46:33.202Z,98981.81
2023-01-27T23:51:35.154Z,98978.84
2023-01-27T23:56:37.241Z,98988.75
